createdAt,value
2022-09-04T00:01:40.073Z,101002.06
2022-09-04T00:04:12.955Z,101000.50
2022-09-04T00:06:42.918Z,101001.00
2022-09-04T00:09:43.070Z,101002.72
2022-09-04T00:12:10.687Z,101000.75
2022-09-04T00:14:49.090Z,100999.16
2022-09-04T00:17:23.446Z,100999.53
2022-09-04T00:20:17.067Z,100999.44
2022-09-04T00:23:00.540Z,100997.84
2022-09-04T00:25:28.084Z,101001.53
2022-09-04T00:28:18.440Z,101005.03
2022-09-04T00:30:57.296Z,101002.41
2022-09-04T00:33:28.652Z,101003.28
2022-09-04T00:35:58.062Z,101005.31
2022-09-04T00:38:40.880Z,101009.56
2022-09-04T00:41:13.455Z,101012.72
2022-09-04T00:43:40.839Z,101008.06
2022-09-04T00:46:23.618Z,101010.81
2022-09-04T00:49:03.483Z,101012.09
2022-09-04T00:51:37.757Z,101017.41
2022-09-04T00:54:05.183Z,101011.69
2022-09-04T00:56:36.499Z,101014.78
2022-09-04T00:59:07.029Z,101012.91
2022-09-04T01:01:36.736Z,101008.66
2022-09-04T01:04:22.830Z,101011.00
2022-09-04T01:06:57.935Z,101013.16
2022-09-04T01:09:25.433Z,101013.41
2022-09-04T01:11:52.891Z,101014.03
2022-09-04T01:14:26.374Z,101014.28
2022-09-04T01:17:12.321Z,101010.63
2022-09-04T01:19:56.225Z,101011.31
2022-09-04T01:22:30.282Z,101008.81
2022-09-04T01:25:00.556Z,101010.88
2022-09-04T01:27:29.558Z,101014.19
2022-09-04T01:30:00.400Z,101014.06
2022-09-04T01:32:34.071Z,101015.38
2022-09-04T01:35:20.371Z,101005.19
2022-09-04T01:37:50.810Z,101008.34
2022-09-04T01:40:36.045Z,101004.47
2022-09-04T01:43:06.501Z,101010.53
2022-09-04T01:45:38.345Z,101007.50
2022-09-04T01:48:08.149Z,101003.56
2022-09-04T01:50:35.641Z,100994.06
2022-09-04T01:53:03.136Z,100994.06
2022-09-04T01:55:43.514Z,100992.69
2022-09-04T01:58:19.568Z,100993.94
2022-09-04T02:00:50.626Z,100989.53
2022-09-04T02:03:22.746Z,100993.59
2022-09-04T02:06:01.984Z,100994.47
2022-09-04T02:08:36.133Z,100990.41
2022-09-04T02:11:09.710Z,100980.78
2022-09-04T02:13:40.507Z,100975.66
2022-09-04T02:16:37.524Z,100976.81
2022-09-04T02:19:14.214Z,100975.75
2022-09-04T02:21:48.734Z,100977.22
2022-09-04T02:24:19.326Z,100975.81
2022-09-04T02:26:46.819Z,100971.22
2022-09-04T02:29:28.879Z,100972.28
2022-09-04T02:32:06.393Z,100969.19
2022-09-04T02:34:49.931Z,100972.63
2022-09-04T02:37:21.327Z,100972.28
2022-09-04T02:40:08.156Z,100979.16
2022-09-04T02:42:39.390Z,100990.56
2022-09-04T02:45:15.971Z,101003.59
2022-09-04T02:47:49.248Z,100999.56
2022-09-04T02:50:21.163Z,100999.72
2022-09-04T02:53:08.418Z,101010.94
2022-09-04T02:55:57.549Z,101016.38
2022-09-04T02:58:34.201Z,101014.78
2022-09-04T03:01:10.675Z,101014.69
2022-09-04T03:03:48.515Z,101020.16
2022-09-04T03:06:19.745Z,101020.88
2022-09-04T03:08:48.281Z,101029.84
2022-09-04T03:11:21.357Z,101029.59
2022-09-04T03:14:07.421Z,101026.31
2022-09-04T03:16:43.542Z,101025.34
2022-09-04T03:19:20.271Z,101022.72
2022-09-04T03:21:55.862Z,101028.91
2022-09-04T03:24:25.955Z,101017.88
2022-09-04T03:26:54.443Z,101014.66
2022-09-04T03:29:30.846Z,101018.47
2022-09-04T03:32:16.268Z,101020.69
2022-09-04T03:34:49.060Z,101013.34
2022-09-04T03:37:19.325Z,101024.97
2022-09-04T03:39:50.046Z,101029.50
2022-09-04T03:42:27.945Z,101029.34
2022-09-04T03:45:10.775Z,101032.88
2022-09-04T03:47:42.385Z,101025.91
2022-09-04T03:50:29.399Z,101023.28
2022-09-04T03:53:15.502Z,101026.59
2022-09-04T03:56:01.637Z,101030.72
2022-09-04T03:58:29.247Z,101038.38
2022-09-04T04:00:57.319Z,101028.97
2022-09-04T04:03:32.346Z,101031.22
2022-09-04T04:06:03.341Z,101028.44
2022-09-04T04:08:34.088Z,101029.56
2022-09-04T04:11:05.512Z,101022.66
2022-09-04T04:13:41.176Z,101032.31
2022-09-04T04:16:24.794Z,101031.09
2022-09-04T04:19:01.706Z,101036.22
2022-09-04T04:21:29.449Z,101041.94
2022-09-04T04:24:15.595Z,101042.78
2022-09-04T04:26:50.655Z,101039.47
2022-09-04T04:29:27.974Z,101043.28
2022-09-04T04:32:15.736Z,101040.94
2022-09-04T04:35:18.723Z,101056.66
2022-09-04T04:37:56.389Z,101051.91
2022-09-04T04:40:42.610Z,101055.66
2022-09-04T04:43:28.423Z,101065.69
2022-09-04T04:46:01.934Z,101069.84
2022-09-04T04:48:55.582Z,101069.88
2022-09-04T04:51:26.433Z,101062.25
2022-09-04T04:54:13.999Z,101061.53
2022-09-04T04:57:02.663Z,101056.34
2022-09-04T04:59:41.985Z,101066.03
2022-09-04T05:02:09.551Z,101067.03
2022-09-04T05:04:37.181Z,101066.19
2022-09-04T05:07:10.985Z,101066.84
2022-09-04T05:10:07.139Z,101062.59
2022-09-04T05:12:53.237Z,101060.59
2022-09-04T05:15:52.919Z,101070.03
2022-09-04T05:18:37.394Z,101062.72
2022-09-04T05:21:24.547Z,101067.50
2022-09-04T05:23:58.151Z,101070.16
2022-09-04T05:26:32.306Z,101069.09
2022-09-04T05:29:06.072Z,101066.44
2022-09-04T05:31:56.030Z,101070.69
2022-09-04T05:34:41.625Z,101072.00
2022-09-04T05:37:14.966Z,101081.41
2022-09-04T05:40:01.485Z,101083.41
2022-09-04T05:42:48.883Z,101088.97
2022-09-04T05:45:16.249Z,101088.09
2022-09-04T05:47:49.146Z,101091.00
2022-09-04T05:50:22.609Z,101089.47
2022-09-04T05:53:08.755Z,101084.72
2022-09-04T05:55:51.708Z,101087.50
2022-09-04T05:58:31.045Z,101099.53
2022-09-04T06:01:17.264Z,101104.59
2022-09-04T06:04:03.197Z,101096.50
2022-09-04T06:06:37.648Z,101100.81
2022-09-04T06:09:11.407Z,101109.09
2022-09-04T06:11:45.176Z,101108.25
2022-09-04T06:14:17.449Z,101117.03
2022-09-04T06:17:00.481Z,101124.16
2022-09-04T06:19:28.005Z,101124.91
2022-09-04T06:21:55.465Z,101130.16
2022-09-04T06:24:22.882Z,101135.81
2022-09-04T06:27:12.528Z,101137.41
2022-09-04T06:30:06.823Z,101137.91
2022-09-04T06:32:37.832Z,101139.03
2022-09-04T06:35:24.042Z,101136.94
2022-09-04T06:38:10.443Z,101133.41
2022-09-04T06:40:38.759Z,101150.81
2022-09-04T06:43:06.217Z,101153.72
2022-09-04T06:45:37.496Z,101155.00
2022-09-04T06:48:23.963Z,101154.44
2022-09-04T06:51:10.547Z,101151.41
2022-09-04T06:53:42.607Z,101155.03
2022-09-04T06:56:10.511Z,101146.69
2022-09-04T06:59:01.082Z,101154.50
2022-09-04T07:01:41.417Z,101163.09
2022-09-04T07:04:20.973Z,101167.81
2022-09-04T07:07:18.617Z,101171.56
2022-09-04T07:09:47.431Z,101158.97
2022-09-04T07:12:15.101Z,101170.44
2022-09-04T07:15:02.727Z,101169.69
2022-09-04T07:17:56.487Z,101174.41
2022-09-04T07:20:30.877Z,101172.38
2022-09-04T07:23:03.054Z,101173.00
2022-09-04T07:25:30.585Z,101174.94
2022-09-04T07:28:41.202Z,101185.81
2022-09-04T07:31:16.365Z,101183.16
2022-09-04T07:34:05.503Z,101184.78
2022-09-04T07:36:38.924Z,101189.66
2022-09-04T07:39:25.518Z,101195.34
2022-09-04T07:42:01.523Z,101184.09
2022-09-04T07:44:32.331Z,101190.41
2022-09-04T07:47:02.543Z,101192.38
2022-09-04T07:49:36.988Z,101183.72
2022-09-04T07:52:13.804Z,101184.28
2022-09-04T07:55:00.595Z,101188.25
2022-09-04T07:57:36.568Z,101176.66
2022-09-04T08:00:06.516Z,101188.25
2022-09-04T08:02:43.369Z,101187.19
2022-09-04T08:05:11.102Z,101195.31
2022-09-04T08:07:38.789Z,101194.47
2022-09-04T08:10:18.463Z,101190.16
2022-09-04T08:12:52.075Z,101189.25
2022-09-04T08:15:20.238Z,101200.56
2022-09-04T08:17:47.704Z,101196.28
2022-09-04T08:20:24.150Z,101199.97
2022-09-04T08:22:54.591Z,101197.09
2022-09-04T08:25:25.159Z,101202.25
2022-09-04T08:27:55.454Z,101201.44
2022-09-04T08:30:23.165Z,101205.38
2022-09-04T08:33:15.675Z,101203.09
2022-09-04T08:35:48.416Z,101202.88
2022-09-04T08:38:19.293Z,101200.91
2022-09-04T08:41:07.069Z,101200.88
2022-09-04T08:43:55.449Z,101194.78
2022-09-04T08:46:47.426Z,101199.00
2022-09-04T08:49:36.094Z,101205.69
2022-09-04T08:52:14.699Z,101191.69
2022-09-04T08:54:59.238Z,101204.03
2022-09-04T08:57:32.916Z,101202.34
2022-09-04T09:00:14.296Z,101201.22
2022-09-04T09:03:00.550Z,101211.88
2022-09-04T09:05:36.654Z,101212.44
2022-09-04T09:08:23.303Z,101200.13
2022-09-04T09:11:06.372Z,101204.59
2022-09-04T09:13:52.872Z,101201.50
2022-09-04T09:16:33.311Z,101201.81
2022-09-04T09:19:03.914Z,101195.00
2022-09-04T09:21:31.751Z,101200.78
2022-09-04T09:24:16.060Z,101212.09
2022-09-04T09:27:02.327Z,101205.59
2022-09-04T09:29:38.855Z,101225.31
2022-09-04T09:32:16.598Z,101221.13
2022-09-04T09:35:02.688Z,101220.84
2022-09-04T09:37:57.530Z,101219.09
2022-09-04T09:40:45.450Z,101215.38
2022-09-04T09:43:13.038Z,101210.38
2022-09-04T09:45:44.809Z,101222.13
2022-09-04T09:48:24.495Z,101227.00
2022-09-04T09:50:54.949Z,101225.88
2022-09-04T09:53:25.237Z,101221.41
2022-09-04T09:55:58.843Z,101221.69
2022-09-04T09:58:26.379Z,101224.22
2022-09-04T10:01:13.027Z,101223.63
2022-09-04T10:03:56.164Z,101225.06
2022-09-04T10:06:41.832Z,101225.06
2022-09-04T10:09:16.216Z,101232.63
2022-09-04T10:12:07.327Z,101233.19
2022-09-04T10:14:34.766Z,101229.81
2022-09-04T10:17:08.782Z,101227.75
2022-09-04T10:19:39.233Z,101232.75
2022-09-04T10:22:22.080Z,101234.50
2022-09-04T10:25:02.436Z,101247.47
2022-09-04T10:27:30.064Z,101241.59
2022-09-04T10:30:10.297Z,101247.75
2022-09-04T10:32:41.510Z,101252.50
2022-09-04T10:35:21.335Z,101255.00
2022-09-04T10:38:08.749Z,101251.38
2022-09-04T10:40:55.327Z,101255.56
2022-09-04T10:43:22.744Z,101251.06
2022-09-04T10:46:08.638Z,101254.16
2022-09-04T10:48:40.168Z,101249.41
2022-09-04T10:51:13.874Z,101246.88
2022-09-04T10:53:52.960Z,101251.09
2022-09-04T10:56:34.462Z,101241.00
2022-09-04T10:59:04.999Z,101251.69
2022-09-04T11:01:55.365Z,101262.00
2022-09-04T11:04:29.095Z,101249.09
2022-09-04T11:07:18.189Z,101251.63
2022-09-04T11:09:52.320Z,101264.53
2022-09-04T11:12:34.416Z,101260.31
2022-09-04T11:15:05.795Z,101263.72
2022-09-04T11:17:33.274Z,101260.03
2022-09-04T11:20:19.389Z,101263.13
2022-09-04T11:22:47.121Z,101260.03
2022-09-04T11:25:20.573Z,101249.41
2022-09-04T11:27:53.915Z,101262.00
2022-09-04T11:30:22.561Z,101253.34
2022-09-04T11:32:53.546Z,101250.81
2022-09-04T11:35:36.490Z,101251.34
2022-09-04T11:38:17.646Z,101242.94
2022-09-04T11:40:57.368Z,101246.06
2022-09-04T11:43:34.483Z,101249.66
2022-09-04T11:46:18.058Z,101247.47
2022-09-04T11:49:08.156Z,101246.06
2022-09-04T11:51:43.089Z,101256.44
2022-09-04T11:54:13.654Z,101253.91
2022-09-04T11:57:00.552Z,101249.97
2022-09-04T11:59:36.974Z,101240.44
2022-09-04T12:02:27.901Z,101237.69
2022-09-04T12:05:03.788Z,101232.63
2022-09-04T12:07:47.592Z,101232.94
2022-09-04T12:10:38.591Z,101240.16
2022-09-04T12:13:14.734Z,101233.75
2022-09-04T12:16:09.990Z,101238.72
2022-09-04T12:18:44.932Z,101240.44
2022-09-04T12:21:12.410Z,101249.13
2022-09-04T12:24:00.661Z,101249.97
2022-09-04T12:26:28.161Z,101255.88
2022-09-04T12:28:57.645Z,101255.03
2022-09-04T12:31:51.348Z,101253.63
2022-09-04T12:34:19.437Z,101256.13
2022-09-04T12:37:06.269Z,101258.94
2022-09-04T12:39:52.569Z,101265.38
2022-09-04T12:42:38.935Z,101267.94
2022-09-04T12:45:06.613Z,101270.72
2022-09-04T12:47:34.922Z,101265.66
2022-09-04T12:50:04.406Z,101268.44
2022-09-04T12:52:38.591Z,101269.03
2022-09-04T12:55:15.322Z,101267.34
2022-09-04T12:58:02.539Z,101276.00
2022-09-04T13:00:48.484Z,101272.94
2022-09-04T13:03:28.718Z,101275.47
2022-09-04T13:06:22.475Z,101292.56
2022-09-04T13:08:56.670Z,101286.91
2022-09-04T13:11:27.949Z,101286.94
2022-09-04T13:13:56.896Z,101280.22
2022-09-04T13:16:39.168Z,101285.56
2022-09-04T13:19:12.808Z,101287.00
2022-09-04T13:21:55.071Z,101288.13
2022-09-04T13:24:32.616Z,101290.66
2022-09-04T13:27:26.921Z,101293.16
2022-09-04T13:30:22.104Z,101287.84
2022-09-04T13:32:49.930Z,101304.09
2022-09-04T13:35:31.533Z,101300.19
2022-09-04T13:38:33.409Z,101295.66
2022-09-04T13:41:17.562Z,101295.69
2022-09-04T13:43:48.065Z,101301.84
2022-09-04T13:46:17.275Z,101295.13
2022-09-04T13:48:45.514Z,101310.00
2022-09-04T13:51:16.056Z,101316.16
2022-09-04T13:54:02.494Z,101310.47
2022-09-04T13:56:50.547Z,101313.31
2022-09-04T13:59:18.253Z,101306.63
2022-09-04T14:01:48.107Z,101302.97
2022-09-04T14:04:17.230Z,101310.28
2022-09-04T14:06:45.699Z,101314.41
2022-09-04T14:09:13.812Z,101323.44
2022-09-04T14:11:53.105Z,101325.63
2022-09-04T14:14:30.938Z,101327.59
2022-09-04T14:17:00.202Z,101319.47
2022-09-04T14:19:36.202Z,101318.03
2022-09-04T14:22:24.180Z,101320.81
2022-09-04T14:27:58.107Z,101325.31
2022-09-04T14:30:25.636Z,101319.47
2022-09-04T14:30:29.406Z,101321.63
2022-09-04T14:33:07.384Z,101323.09
2022-09-04T14:35:37.000Z,101330.06
2022-09-04T14:38:13.676Z,101327.81
2022-09-04T14:40:59.833Z,101328.69
2022-09-04T14:43:37.755Z,101332.03
2022-09-04T14:46:08.453Z,101336.50
2022-09-04T14:48:40.716Z,101339.91
2022-09-04T14:51:13.625Z,101345.50
2022-09-04T14:53:46.012Z,101339.06
2022-09-04T14:56:17.982Z,101342.69
2022-09-04T14:58:54.545Z,101343.81
2022-09-04T15:01:22.467Z,101349.13
2022-09-04T15:03:55.806Z,101342.41
2022-09-04T15:07:10.873Z,101331.72
2022-09-04T15:09:41.675Z,101339.03
2022-09-04T15:12:28.871Z,101342.44
2022-09-04T15:15:08.737Z,101329.53
2022-09-04T15:17:36.952Z,101335.50
2022-09-04T15:20:09.329Z,101332.03
2022-09-04T15:22:46.544Z,101338.97
2022-09-04T15:25:17.279Z,101338.66
2022-09-04T15:27:55.370Z,101337.56
2022-09-04T15:30:23.523Z,101342.28
2022-09-04T15:32:51.170Z,101344.81
2022-09-04T15:35:21.364Z,101341.75
2022-09-04T15:37:50.417Z,101342.03
2022-09-04T15:40:27.675Z,101342.28
2022-09-04T15:43:13.906Z,101343.09
2022-09-04T15:45:46.824Z,101349.44
2022-09-04T15:48:17.464Z,101344.84
2022-09-04T15:50:57.614Z,101347.63
2022-09-04T15:53:29.338Z,101346.25
2022-09-04T15:56:09.655Z,101348.84
2022-09-04T15:58:42.236Z,101355.50
2022-09-04T16:01:31.329Z,101350.03
2022-09-04T16:04:03.718Z,101343.91
2022-09-04T16:06:33.049Z,101344.63
2022-09-04T16:09:02.659Z,101339.19
2022-09-04T16:11:34.983Z,101348.91
2022-09-04T16:14:04.449Z,101347.75
2022-09-04T16:16:35.100Z,101352.53
2022-09-04T16:19:14.350Z,101353.38
2022-09-04T16:21:43.605Z,101355.03
2022-09-04T16:24:12.288Z,101356.69
2022-09-04T16:26:39.720Z,101357.94
2022-09-04T16:29:08.539Z,101368.16
2022-09-04T16:31:40.042Z,101362.81
2022-09-04T16:34:14.073Z,101375.94
2022-09-04T16:36:48.463Z,101377.66
2022-09-04T16:39:22.192Z,101377.78
2022-09-04T16:41:51.344Z,101378.59
2022-09-04T16:44:26.086Z,101375.38
2022-09-04T16:47:02.832Z,101385.63
2022-09-04T16:49:35.751Z,101390.66
2022-09-04T16:52:17.214Z,101393.06
2022-09-04T16:54:49.219Z,101403.84
2022-09-04T16:57:17.379Z,101413.31
2022-09-04T16:59:48.880Z,101416.03
2022-09-04T17:02:43.193Z,101411.19
2022-09-04T17:05:17.661Z,101417.84
2022-09-04T17:07:50.124Z,101425.97
2022-09-04T17:10:41.482Z,101431.44
2022-09-04T17:13:12.262Z,101430.44
2022-09-04T17:15:53.131Z,101434.34
2022-09-04T17:18:22.742Z,101432.13
2022-09-04T17:23:53.556Z,101437.41
2022-09-04T17:28:59.945Z,101438.63
2022-09-04T17:29:09.352Z,101447.13
2022-09-04T17:29:38.273Z,101445.66
2022-09-04T17:33:17.824Z,101437.72
2022-09-04T17:40:39.643Z,101441.75
2022-09-04T17:40:48.438Z,101430.50
2022-09-04T17:41:44.159Z,101434.28
2022-09-04T17:44:17.283Z,101436.50
2022-09-04T17:47:04.707Z,101436.13
2022-09-04T17:49:34.792Z,101445.03
2022-09-04T17:52:08.220Z,101448.69
2022-09-04T17:54:39.994Z,101441.44
2022-09-04T17:57:10.475Z,101443.84
2022-09-04T18:00:01.454Z,101449.13
2022-09-04T18:02:38.672Z,101445.81
2022-09-04T18:05:19.064Z,101452.50
2022-09-04T18:08:08.230Z,101447.97
2022-09-04T18:10:52.788Z,101455.31
2022-09-04T18:13:37.133Z,101454.63
2022-09-04T18:16:07.559Z,101447.56
2022-09-04T18:18:39.432Z,101463.28
2022-09-04T18:21:13.440Z,101454.91
2022-09-04T18:23:52.164Z,101456.16
2022-09-04T18:26:30.487Z,101466.06
2022-09-04T18:30:02.093Z,101466.75
2022-09-04T18:37:08.566Z,101468.50
2022-09-04T18:37:18.978Z,101467.81
2022-09-04T18:37:55.707Z,101468.50
2022-09-04T18:41:23.958Z,101460.97
2022-09-04T18:50:23.981Z,101464.28
2022-09-04T18:50:44.669Z,101461.81
2022-09-04T18:50:46.882Z,101460.13
2022-09-04T18:51:51.230Z,101456.75
2022-09-04T18:54:27.945Z,101448.72
2022-09-04T18:56:58.804Z,101453.88
2022-09-04T18:59:26.724Z,101459.25
2022-09-04T19:02:00.995Z,101457.41
2022-09-04T19:04:28.828Z,101457.31
2022-09-04T19:07:07.038Z,101459.81
2022-09-04T19:09:55.765Z,101459.00
2022-09-04T19:12:24.596Z,101456.31
2022-09-04T19:15:02.261Z,101466.53
2022-09-04T19:17:31.328Z,101461.03
2022-09-04T19:20:00.796Z,101463.31
2022-09-04T19:22:33.840Z,101463.72
2022-09-04T19:25:04.734Z,101463.31
2022-09-04T19:27:38.985Z,101460.06
2022-09-04T19:30:24.022Z,101457.06
2022-09-04T19:33:04.785Z,101457.63
2022-09-04T19:35:36.902Z,101456.78
2022-09-04T19:40:44.726Z,101452.00
2022-09-04T19:45:55.212Z,101454.84
2022-09-04T19:46:17.428Z,101453.59
2022-09-04T19:46:44.310Z,101452.91
2022-09-04T19:51:52.324Z,101452.34
2022-09-04T19:53:30.114Z,101466.13
2022-09-04T19:55:24.067Z,101453.28
2022-09-04T19:57:47.396Z,101460.63
2022-09-04T20:00:42.632Z,101461.59
2022-09-04T20:03:07.686Z,101465.94
2022-09-04T20:05:35.474Z,101469.25
2022-09-04T20:08:12.201Z,101479.59
2022-09-04T20:10:47.567Z,101478.19
2022-09-04T20:13:33.389Z,101478.25
2022-09-04T20:16:07.630Z,101476.59
2022-09-04T20:18:40.272Z,101481.44
2022-09-04T20:21:07.919Z,101479.25
2022-09-04T20:23:54.299Z,101478.91
2022-09-04T20:26:24.287Z,101483.59
2022-09-04T20:29:00.914Z,101476.72
2022-09-04T20:31:46.953Z,101490.13
2022-09-04T20:34:20.396Z,101489.31
2022-09-04T20:36:51.334Z,101490.19
2022-09-04T20:39:24.834Z,101488.13
2022-09-04T20:42:00.195Z,101496.09
2022-09-04T20:46:32.940Z,101490.16
2022-09-04T20:52:46.418Z,101491.88
2022-09-04T20:53:04.678Z,101489.91
2022-09-04T20:53:38.776Z,101488.47
2022-09-04T20:59:15.220Z,101493.31
2022-09-04T21:03:12.364Z,101498.63
2022-09-04T21:03:22.524Z,101504.34
2022-09-04T21:05:36.199Z,101495.09
2022-09-04T21:08:22.364Z,101509.41
2022-09-04T21:10:55.862Z,101507.72
2022-09-04T21:13:23.413Z,101506.25
2022-09-04T21:15:57.130Z,101506.38
2022-09-04T21:18:32.592Z,101505.03
2022-09-04T21:21:03.264Z,101510.25
2022-09-04T21:23:36.598Z,101495.84
2022-09-04T21:26:04.256Z,101496.94
2022-09-04T21:28:31.700Z,101496.56
2022-09-04T21:31:09.050Z,101499.47
2022-09-04T21:33:55.100Z,101496.13
2022-09-04T21:36:27.498Z,101491.25
2022-09-04T21:38:59.275Z,101495.97
2022-09-04T21:41:32.656Z,101497.06
2022-09-04T21:44:06.231Z,101493.31
2022-09-04T21:46:34.517Z,101492.72
2022-09-04T21:49:08.428Z,101498.25
2022-09-04T21:51:35.923Z,101497.81
2022-09-04T21:54:03.445Z,101500.53
2022-09-04T22:02:29.454Z,101494.53
2022-09-04T22:02:44.438Z,101511.22
2022-09-04T22:02:57.702Z,101505.88
2022-09-04T22:05:50.460Z,101502.00
2022-09-04T22:13:31.370Z,101499.38
2022-09-04T22:13:46.548Z,101502.59
2022-09-04T22:14:28.724Z,101509.00
2022-09-04T22:17:03.276Z,101505.25
2022-09-04T22:19:33.910Z,101515.44
2022-09-04T22:22:18.920Z,101500.91
2022-09-04T22:24:50.203Z,101504.25
2022-09-04T22:27:58.659Z,101505.13
2022-09-04T22:30:23.602Z,101504.25
2022-09-04T22:32:53.984Z,101507.72
2022-09-04T22:35:36.104Z,101506.47
2022-09-04T22:38:04.003Z,101505.34
2022-09-04T22:40:33.071Z,101509.25
2022-09-04T22:43:05.536Z,101508.13
2022-09-04T22:45:39.417Z,101511.50
2022-09-04T22:48:06.784Z,101510.41
2022-09-04T22:50:49.725Z,101510.41
2022-09-04T22:53:17.983Z,101511.84
2022-09-04T22:56:22.591Z,101502.19
2022-09-04T22:58:43.124Z,101506.38
2022-09-04T23:01:10.587Z,101508.56
2022-09-04T23:03:45.521Z,101505.69
2022-09-04T23:08:01.278Z,101506.50
2022-09-04T23:13:43.716Z,101507.78
2022-09-04T23:14:02.711Z,101507.19
2022-09-04T23:15:43.409Z,101511.28
2022-09-04T23:19:17.388Z,101507.91
2022-09-04T23:26:32.589Z,101501.28
2022-09-04T23:26:43.385Z,101506.44
2022-09-04T23:26:59.656Z,101507.06
2022-09-04T23:29:45.252Z,101510.06
2022-09-04T23:32:16.390Z,101512.13
2022-09-04T23:35:14.754Z,101502.25
2022-09-04T23:37:44.581Z,101504.69
2022-09-04T23:40:17.650Z,101496.56
2022-09-04T23:43:03.552Z,101499.16
2022-09-04T23:45:36.762Z,101492.59
2022-09-04T23:48:19.320Z,101491.84
2022-09-04T23:50:53.120Z,101497.97
2022-09-04T23:53:35.852Z,101489.25
2022-09-04T23:56:21.647Z,101495.50
2022-09-04T23:59:10.605Z,101488.31
